Time;durP1;ratioP1;P1;durP2;ratioP2;P2;SDS_P1;SDS_P2;PMS_P1;PMS_P2;Temp;Humidity;BMP_temperature;BMP_pressure;BME280_temperature;BME280_humidity;BME280_pressure;Samples;Min_cycle;Max_cycle;Signal;HPM_P1;HPM_P2
2023/04/13 00:00:51;;;;;;;1.43;0.80;;;7.50;99.90;;;;;;5003078;28;20412;-75
2023/04/13 00:03:18;;;;;;;2.87;1.10;;;7.60;99.90;;;;;;5085854;28;20536;-77
2023/04/13 00:05:47;;;;;;;1.03;0.80;;;7.60;99.90;;;;;;5042723;28;20429;-76
2023/04/13 00:08:15;;;;;;;17.87;1.20;;;7.70;99.90;;;;;;5090022;28;20685;-75
2023/04/13 00:10:42;;;;;;;1.10;0.90;;;7.80;99.90;;;;;;5094931;28;20460;-76
2023/04/13 00:13:10;;;;;;;1.97;1.27;;;8.00;99.90;;;;;;5080071;28;20491;-76
2023/04/13 00:15:42;;;;;;;1.30;1.10;;;8.00;99.90;;;;;;5087303;28;21017;-76
2023/04/13 00:18:11;;;;;;;1.30;0.80;;;8.00;99.90;;;;;;5087384;28;20457;-76
2023/04/13 00:20:42;;;;;;;1.20;0.83;;;7.90;99.90;;;;;;5088238;28;20477;-76
2023/04/13 00:23:10;;;;;;;1.10;1.00;;;8.00;99.90;;;;;;5081986;28;21147;-75
2023/04/13 00:25:37;;;;;;;2.10;0.90;;;8.00;99.90;;;;;;5084766;28;20833;-75
2023/04/13 00:28:05;;;;;;;1.20;0.90;;;8.00;99.90;;;;;;5080528;28;20540;-75
2023/04/13 00:30:33;;;;;;;1.53;0.90;;;8.00;99.90;;;;;;5078329;28;20513;-76
2023/04/13 00:35:49;;;;;;;1.60;1.10;;;8.20;99.90;;;;;;5079479;28;20488;-76
2023/04/13 00:38:17;;;;;;;1.20;1.03;;;8.10;99.90;;;;;;5081862;28;20498;-75
2023/04/13 00:40:44;;;;;;;1.20;1.00;;;8.00;99.90;;;;;;5088243;28;20512;-75
2023/04/13 00:43:11;;;;;;;3.03;1.00;;;7.90;99.90;;;;;;5040831;28;20569;-75
2023/04/13 00:45:39;;;;;;;2.80;0.90;;;8.10;99.90;;;;;;5077713;28;20541;-75
2023/04/13 00:48:10;;;;;;;1.00;0.70;;;8.20;99.90;;;;;;5075614;28;20519;-75
2023/04/13 00:50:37;;;;;;;1.00;0.70;;;8.20;99.90;;;;;;5069777;28;20429;-76
2023/04/13 00:53:06;;;;;;;1.10;0.80;;;8.20;99.90;;;;;;5076155;28;20558;-75
2023/04/13 00:55:37;;;;;;;1.20;0.90;;;8.20;99.90;;;;;;5084572;28;20477;-75
2023/04/13 00:58:06;;;;;;;1.43;0.80;;;8.30;99.90;;;;;;5088641;28;20970;-76
2023/04/13 01:00:37;;;;;;;1.10;0.80;;;8.40;99.90;;;;;;5071791;28;20457;-75
2023/04/13 01:03:05;;;;;;;1.00;0.60;;;8.40;99.90;;;;;;5073651;28;20467;-76
2023/04/13 01:05:49;;;;;;;6.13;1.00;;;8.20;99.90;;;;;;5078154;28;21051;-76
2023/04/13 01:08:24;;;;;;;2.90;1.00;;;8.10;99.90;;;;;;5089549;28;20442;-75
2023/04/13 01:10:56;;;;;;;2.13;1.73;;;8.00;99.90;;;;;;5070290;28;20498;-75
2023/04/13 01:13:29;;;;;;;1.10;0.70;;;7.80;99.90;;;;;;5075554;28;20568;-74
2023/04/13 01:16:06;;;;;;;1.10;0.80;;;7.70;99.90;;;;;;5080285;28;20553;-76
2023/04/13 01:18:36;;;;;;;1.00;0.70;;;7.60;99.90;;;;;;5085187;28;20497;-75
2023/04/13 01:21:06;;;;;;;1.10;0.90;;;7.60;99.90;;;;;;5082949;28;20485;-75
2023/04/13 01:23:48;;;;;;;1.30;1.10;;;7.70;99.90;;;;;;5082392;28;20871;-75
2023/04/13 01:26:16;;;;;;;1.30;0.90;;;7.60;99.90;;;;;;5083886;28;20462;-75
2023/04/13 01:28:48;;;;;;;1.20;0.77;;;7.60;99.90;;;;;;5064969;28;20484;-75
2023/04/13 01:31:16;;;;;;;1.20;0.90;;;7.60;99.90;;;;;;5085191;28;20503;-75
2023/04/13 01:33:45;;;;;;;1.10;0.77;;;7.70;99.90;;;;;;5074594;28;20479;-76
2023/04/13 01:36:13;;;;;;;1.10;0.80;;;7.60;99.90;;;;;;5084102;28;21173;-75
2023/04/13 01:38:40;;;;;;;1.00;0.80;;;7.70;99.90;;;;;;5087070;28;20484;-76
2023/04/13 01:41:07;;;;;;;2.93;1.20;;;7.60;99.90;;;;;;5085215;28;20583;-75
2023/04/13 01:43:35;;;;;;;1.10;0.80;;;7.50;99.90;;;;;;5082555;28;20516;-75
2023/04/13 01:46:07;;;;;;;0.90;0.70;;;7.50;99.90;;;;;;5083705;28;20457;-75
2023/04/13 01:48:42;;;;;;;1.27;0.70;;;7.50;99.90;;;;;;5076362;28;20520;-74
2023/04/13 01:51:13;;;;;;;1.10;0.90;;;7.50;99.90;;;;;;5086552;28;21165;-75
2023/04/13 01:53:44;;;;;;;1.00;0.90;;;7.50;99.90;;;;;;5091840;28;21135;-75
2023/04/13 01:56:18;;;;;;;2.53;1.07;;;7.50;99.90;;;;;;5076729;28;20560;-75
2023/04/13 01:58:48;;;;;;;1.00;0.70;;;7.60;99.90;;;;;;5080328;28;20461;-74
2023/04/13 02:01:16;;;;;;;1.20;0.80;;;7.60;99.90;;;;;;5074758;28;20550;-75
2023/04/13 02:03:44;;;;;;;2.07;1.07;;;7.60;99.90;;;;;;5078798;28;20456;-75
2023/04/13 02:06:11;;;;;;;1.00;0.77;;;7.60;99.90;;;;;;5090662;28;20433;-74
2023/04/13 02:08:39;;;;;;;0.90;0.60;;;7.60;99.90;;;;;;5100631;28;20463;-75
2023/04/13 02:11:07;;;;;;;2.67;0.80;;;7.70;99.90;;;;;;5080044;28;20431;-75
2023/04/13 02:13:34;;;;;;;1.67;1.00;;;7.70;99.90;;;;;;5091677;28;20455;-75
2023/04/13 02:16:05;;;;;;;1.97;0.93;;;7.70;99.90;;;;;;5058360;28;20452;-75
2023/04/13 02:18:33;;;;;;;1.10;0.83;;;7.60;99.90;;;;;;5081325;28;20450;-75
2023/04/13 02:21:02;;;;;;;5.43;0.90;;;7.80;99.90;;;;;;5075215;28;21857;-75
2023/04/13 02:23:30;;;;;;;1.00;0.70;;;7.80;99.90;;;;;;5083226;28;20992;-74
2023/04/13 02:25:57;;;;;;;1.40;0.97;;;7.70;99.90;;;;;;5091077;28;20905;-75
2023/04/13 02:28:27;;;;;;;1.00;0.70;;;7.60;99.90;;;;;;5083028;28;20561;-75
2023/04/13 02:30:55;;;;;;;1.57;0.87;;;7.50;99.90;;;;;;5083838;28;20423;-73
2023/04/13 02:33:22;;;;;;;0.90;0.60;;;7.50;99.90;;;;;;5088422;28;20448;-74
2023/04/13 02:35:51;;;;;;;2.33;1.03;;;7.50;99.90;;;;;;5082854;28;20509;-74
2023/04/13 02:38:18;;;;;;;5.27;1.27;;;7.50;99.90;;;;;;5089685;28;20549;-74
2023/04/13 02:40:46;;;;;;;1.93;0.87;;;7.50;99.90;;;;;;5084333;28;20480;-73
2023/04/13 02:43:14;;;;;;;1.87;1.73;;;7.70;99.90;;;;;;5083735;28;21751;-74
2023/04/13 02:45:42;;;;;;;0.90;0.70;;;7.60;99.90;;;;;;5087966;28;20537;-74
2023/04/13 02:48:10;;;;;;;1.70;0.77;;;7.70;99.90;;;;;;5083836;28;20551;-74
2023/04/13 02:50:37;;;;;;;1.50;1.17;;;7.70;99.90;;;;;;5075282;28;21013;-73
2023/04/13 02:53:06;;;;;;;1.20;0.90;;;7.70;99.90;;;;;;5081987;28;20477;-74
2023/04/13 02:55:34;;;;;;;1.10;0.83;;;7.70;99.90;;;;;;5074644;28;20872;-75
2023/04/13 02:58:05;;;;;;;1.20;0.87;;;7.80;99.90;;;;;;5083844;28;20469;-74
2023/04/13 03:00:32;;;;;;;1.00;0.77;;;7.80;99.90;;;;;;5078398;28;20488;-74
2023/04/13 03:03:02;;;;;;;1.00;0.80;;;7.90;99.90;;;;;;5079294;28;20459;-75
2023/04/13 03:05:30;;;;;;;1.10;0.80;;;8.00;99.90;;;;;;5075479;28;20455;-75
2023/04/13 03:07:57;;;;;;;5.13;1.07;;;7.90;99.90;;;;;;5092090;28;20453;-75
2023/04/13 03:10:26;;;;;;;1.00;0.80;;;7.80;99.90;;;;;;5086780;28;20420;-74
2023/04/13 03:12:53;;;;;;;1.10;0.93;;;7.90;99.90;;;;;;5085382;28;20837;-74
2023/04/13 03:15:23;;;;;;;1.00;0.80;;;7.80;99.90;;;;;;5094090;28;20523;-76
2023/04/13 03:17:50;;;;;;;2.03;1.10;;;7.80;99.90;;;;;;5080483;28;20480;-74
2023/04/13 03:20:22;;;;;;;1.63;1.00;;;7.90;99.90;;;;;;5078112;28;20432;-75
2023/04/13 03:22:50;;;;;;;1.00;0.70;;;7.90;99.90;;;;;;5082941;28;20477;-74
2023/04/13 03:25:17;;;;;;;1.37;0.90;;;8.00;99.90;;;;;;5083000;28;20450;-74
2023/04/13 03:27:45;;;;;;;2.37;0.83;;;7.90;99.90;;;;;;5080040;28;20621;-74
2023/04/13 03:30:13;;;;;;;1.07;0.93;;;7.90;99.90;;;;;;5083739;28;20560;-75
2023/04/13 03:32:40;;;;;;;1.50;1.00;;;7.80;99.90;;;;;;5087706;28;20615;-74
2023/04/13 03:35:07;;;;;;;1.63;1.20;;;7.70;99.90;;;;;;5083014;28;20849;-74
2023/04/13 03:37:41;;;;;;;0.90;0.70;;;7.80;99.90;;;;;;5085099;28;20473;-74
2023/04/13 03:40:10;;;;;;;1.00;0.70;;;7.80;99.90;;;;;;5082006;28;21062;-75
2023/04/13 03:42:37;;;;;;;1.10;0.70;;;7.70;99.90;;;;;;5074127;28;20493;-75
2023/04/13 03:45:07;;;;;;;1.33;1.10;;;7.70;99.90;;;;;;5082323;28;20527;-75
2023/04/13 03:47:34;;;;;;;2.03;0.93;;;7.70;99.90;;;;;;5082931;28;20545;-74
2023/04/13 03:50:02;;;;;;;2.80;1.00;;;7.70;99.90;;;;;;5088163;28;20532;-75
2023/04/13 03:52:30;;;;;;;1.10;0.83;;;7.70;99.90;;;;;;5081606;28;20458;-74
2023/04/13 03:54:57;;;;;;;0.90;0.70;;;7.80;99.90;;;;;;5080658;28;20885;-75
2023/04/13 03:57:24;;;;;;;1.53;0.97;;;7.80;99.90;;;;;;5087062;28;21053;-74
2023/04/13 03:59:51;;;;;;;0.90;0.70;;;7.90;99.90;;;;;;5086644;28;21005;-75
2023/04/13 04:02:19;;;;;;;1.03;0.83;;;7.90;99.90;;;;;;5083581;28;20489;-75
2023/04/13 04:04:46;;;;;;;1.93;1.13;;;7.80;99.90;;;;;;5093107;28;20494;-75
2023/04/13 04:07:13;;;;;;;1.10;0.80;;;7.70;99.90;;;;;;5088270;28;20433;-74
2023/04/13 04:09:42;;;;;;;1.37;1.07;;;7.80;99.90;;;;;;5081682;28;20511;-74
2023/04/13 04:12:09;;;;;;;5.53;1.00;;;7.80;99.90;;;;;;5086059;28;21696;-75
2023/04/13 04:14:36;;;;;;;1.00;0.70;;;7.70;99.90;;;;;;5080864;28;20449;-75
2023/04/13 04:17:03;;;;;;;1.33;1.07;;;7.70;99.90;;;;;;5086495;28;20509;-74
2023/04/13 04:19:31;;;;;;;1.10;0.90;;;7.80;99.90;;;;;;5084227;28;20417;-74
2023/04/13 04:22:02;;;;;;;7.57;1.10;;;7.80;99.90;;;;;;5079937;28;20464;-75
2023/04/13 04:24:31;;;;;;;2.40;1.20;;;7.90;99.90;;;;;;5084771;28;20533;-74
2023/04/13 04:26:59;;;;;;;1.20;0.90;;;7.80;99.90;;;;;;5087213;28;20471;-74
2023/04/13 04:29:32;;;;;;;1.30;0.77;;;7.90;99.90;;;;;;5089392;28;20448;-74
2023/04/13 04:32:00;;;;;;;1.00;0.70;;;7.80;99.90;;;;;;5087852;28;20485;-74
2023/04/13 04:34:27;;;;;;;1.00;0.80;;;7.70;99.90;;;;;;5090299;28;20541;-74
2023/04/13 04:36:56;;;;;;;1.53;1.10;;;7.70;99.90;;;;;;5079729;28;20860;-73
2023/04/13 04:39:25;;;;;;;1.87;1.53;;;7.70;99.90;;;;;;5087938;28;20476;-74
2023/04/13 04:42:02;;;;;;;1.67;1.07;;;7.70;99.90;;;;;;5098001;28;20450;-75
2023/04/13 04:44:30;;;;;;;2.23;1.00;;;7.60;99.90;;;;;;5088215;28;20466;-74
2023/04/13 04:46:59;;;;;;;1.40;0.90;;;7.70;99.90;;;;;;5082675;28;20620;-74
2023/04/13 04:49:27;;;;;;;1.07;0.80;;;7.70;99.90;;;;;;5083116;28;20450;-74
2023/04/13 04:51:56;;;;;;;1.20;0.80;;;7.70;99.90;;;;;;5082390;28;20897;-74
2023/04/13 04:54:25;;;;;;;1.00;0.77;;;7.80;99.90;;;;;;5080703;28;20568;-75
2023/04/13 04:56:52;;;;;;;0.97;0.80;;;7.70;99.90;;;;;;5089691;28;20766;-74
2023/04/13 04:59:19;;;;;;;1.37;0.90;;;7.80;99.90;;;;;;5080287;28;20507;-74
2023/04/13 05:01:48;;;;;;;0.97;0.70;;;7.80;99.90;;;;;;5086228;28;20434;-74
2023/04/13 05:04:15;;;;;;;1.10;0.70;;;7.80;99.90;;;;;;5104020;28;20461;-74
2023/04/13 05:06:43;;;;;;;1.00;0.87;;;7.80;99.90;;;;;;5067292;28;20454;-74
2023/04/13 05:09:13;;;;;;;6.50;1.30;;;7.90;99.90;;;;;;5068901;28;20442;-75
2023/04/13 05:11:41;;;;;;;1.10;0.80;;;8.00;99.90;;;;;;5057604;28;20460;-74
2023/04/13 05:14:08;;;;;;;1.57;0.90;;;8.10;99.90;;;;;;5087146;28;21041;-74
2023/04/13 05:16:35;;;;;;;0.93;0.70;;;8.10;99.90;;;;;;5080946;28;20561;-74
2023/04/13 05:19:04;;;;;;;1.10;0.80;;;8.10;99.90;;;;;;5073202;28;20444;-74
2023/04/13 05:21:31;;;;;;;1.60;1.40;;;8.10;99.90;;;;;;5087760;28;20425;-74
2023/04/13 05:23:58;;;;;;;0.90;0.70;;;8.00;99.90;;;;;;5077321;28;21552;-73
2023/04/13 05:26:29;;;;;;;1.03;0.77;;;7.90;99.90;;;;;;5077077;28;20905;-74
2023/04/13 05:28:56;;;;;;;1.00;0.77;;;8.00;99.90;;;;;;5079949;28;20480;-74
2023/04/13 05:31:24;;;;;;;0.97;0.73;;;8.00;99.90;;;;;;5086352;28;20948;-73
2023/04/13 05:33:52;;;;;;;1.10;0.77;;;8.00;99.90;;;;;;5081980;28;20482;-74
2023/04/13 05:36:20;;;;;;;1.80;1.07;;;8.00;99.90;;;;;;5084637;28;20588;-74
2023/04/13 05:38:47;;;;;;;1.00;0.70;;;8.00;99.90;;;;;;5043483;28;20448;-74
2023/04/13 05:41:14;;;;;;;1.23;1.13;;;8.00;99.90;;;;;;5080545;28;20461;-74
2023/04/13 05:43:45;;;;;;;1.30;1.10;;;8.00;99.90;;;;;;5076159;28;21074;-75
2023/04/13 05:46:12;;;;;;;1.20;0.90;;;8.10;99.90;;;;;;5081745;28;20745;-75
2023/04/13 05:48:40;;;;;;;1.40;1.00;;;8.00;99.90;;;;;;5057361;28;20439;-75
2023/04/13 05:51:08;;;;;;;1.00;0.80;;;8.10;99.90;;;;;;5023318;28;21163;-74
2023/04/13 05:53:35;;;;;;;2.60;0.97;;;8.10;99.90;;;;;;5089077;28;20485;-75
2023/04/13 05:56:02;;;;;;;1.47;0.93;;;8.30;99.90;;;;;;5081650;28;20477;-75
2023/04/13 05:58:30;;;;;;;1.40;0.90;;;8.30;99.90;;;;;;5058865;28;20436;-74
2023/04/13 06:00:59;;;;;;;1.37;0.87;;;8.30;99.90;;;;;;5078238;28;21000;-75
2023/04/13 06:03:27;;;;;;;1.50;1.30;;;8.20;99.90;;;;;;5087753;28;20500;-76
2023/04/13 06:05:54;;;;;;;1.40;0.83;;;8.20;99.90;;;;;;5087349;28;20942;-75
2023/04/13 06:08:22;;;;;;;1.10;1.00;;;8.30;99.90;;;;;;5081042;28;20461;-76
2023/04/13 06:10:49;;;;;;;1.30;1.00;;;8.30;99.90;;;;;;5055926;28;20548;-75
2023/04/13 06:13:16;;;;;;;1.23;1.13;;;8.40;99.90;;;;;;5018983;28;20534;-76
2023/04/13 06:15:43;;;;;;;1.30;0.73;;;8.70;99.90;;;;;;5074765;28;20485;-75
2023/04/13 06:18:11;;;;;;;1.47;1.10;;;8.80;99.90;;;;;;5077283;28;20457;-74
2023/04/13 06:20:39;;;;;;;1.10;1.00;;;8.80;99.90;;;;;;5073106;28;20510;-75
2023/04/13 06:23:08;;;;;;;1.70;1.20;;;9.30;99.90;;;;;;5027229;28;20890;-74
2023/04/13 06:25:36;;;;;;;1.60;1.20;;;9.80;99.90;;;;;;5070685;28;20528;-74
2023/04/13 06:28:03;;;;;;;1.30;1.10;;;10.40;99.90;;;;;;5078573;28;20472;-74
2023/04/13 06:30:36;;;;;;;1.70;1.03;;;10.60;99.90;;;;;;5070489;28;20500;-75
2023/04/13 06:33:04;;;;;;;3.33;1.50;;;11.10;99.90;;;;;;5072609;28;20470;-74
2023/04/13 06:35:45;;;;;;;1.30;1.10;;;10.90;99.90;;;;;;5074459;28;20441;-73
2023/04/13 06:38:15;;;;;;;2.13;1.10;;;10.30;99.90;;;;;;5079692;28;20486;-75
2023/04/13 06:40:42;;;;;;;1.70;1.20;;;10.30;99.90;;;;;;5085898;28;20475;-74
2023/04/13 06:43:09;;;;;;;3.93;1.30;;;10.50;99.90;;;;;;5072288;28;20501;-77
2023/04/13 06:45:37;;;;;;;1.30;1.10;;;10.30;99.90;;;;;;5020821;28;20639;-74
2023/04/13 06:48:10;;;;;;;2.47;1.77;;;10.30;99.90;;;;;;5080599;28;20458;-75
2023/04/13 06:50:39;;;;;;;1.67;1.20;;;10.40;99.90;;;;;;5082042;28;20927;-76
2023/04/13 06:53:07;;;;;;;1.83;1.50;;;10.70;99.90;;;;;;5041224;28;20481;-75
2023/04/13 06:55:35;;;;;;;1.87;1.63;;;11.00;99.90;;;;;;5075101;28;20544;-75
2023/04/13 06:58:02;;;;;;;1.50;1.20;;;11.60;99.90;;;;;;5082425;28;20532;-75
2023/04/13 07:00:29;;;;;;;2.60;1.23;;;11.40;99.90;;;;;;5082012;28;20433;-76
2023/04/13 07:02:58;;;;;;;1.50;1.33;;;11.10;99.90;;;;;;5087127;28;20738;-76
2023/04/13 07:05:25;;;;;;;2.93;2.10;;;10.70;99.90;;;;;;5081083;28;21026;-75
2023/04/13 07:07:54;;;;;;;1.27;1.00;;;10.80;99.90;;;;;;5080299;28;20549;-76
2023/04/13 07:10:21;;;;;;;2.13;1.40;;;11.20;99.90;;;;;;5080726;28;20457;-76
2023/04/13 07:12:49;;;;;;;1.30;0.93;;;11.40;99.90;;;;;;5054855;28;20556;-73
2023/04/13 07:15:17;;;;;;;3.73;1.40;;;11.40;99.90;;;;;;5085444;28;20566;-75
2023/04/13 07:17:46;;;;;;;2.50;1.33;;;11.30;99.90;;;;;;5090314;28;21163;-74
2023/04/13 07:20:13;;;;;;;1.70;1.30;;;11.00;99.90;;;;;;5083121;28;20444;-75
2023/04/13 07:22:40;;;;;;;2.03;1.43;;;10.80;99.90;;;;;;5085390;28;20872;-75
2023/04/13 07:25:09;;;;;;;7.70;1.40;;;10.70;99.90;;;;;;5074649;28;20461;-75
2023/04/13 07:27:39;;;;;;;2.27;0.97;;;10.80;99.90;;;;;;5080485;28;20539;-75
2023/04/13 07:30:08;;;;;;;1.40;1.30;;;11.10;99.90;;;;;;5083957;28;20457;-76
2023/04/13 07:32:37;;;;;;;1.70;1.60;;;11.40;99.90;;;;;;5076064;28;20482;-77
2023/04/13 07:35:16;;;;;;;2.10;1.20;;;11.60;99.90;;;;;;5077378;28;20443;-77
2023/04/13 07:37:48;;;;;;;5.87;1.20;;;11.70;99.90;;;;;;5086576;28;20484;-75
2023/04/13 07:40:18;;;;;;;1.20;1.07;;;11.90;99.90;;;;;;5083448;28;20802;-75
2023/04/13 07:42:46;;;;;;;2.90;1.30;;;12.50;99.90;;;;;;5073483;28;21208;-76
2023/04/13 07:45:14;;;;;;;1.67;1.23;;;13.10;99.90;;;;;;5082738;28;20852;-76
2023/04/13 07:47:41;;;;;;;1.20;0.90;;;13.10;99.90;;;;;;5084146;28;20454;-75
2023/04/13 07:50:09;;;;;;;2.10;1.57;;;12.30;99.90;;;;;;5083723;28;20462;-75
2023/04/13 07:52:37;;;;;;;1.20;0.90;;;11.60;99.90;;;;;;5075203;28;21021;-75
2023/04/13 07:55:05;;;;;;;2.90;1.30;;;11.10;99.90;;;;;;5074755;28;20488;-76
2023/04/13 07:57:35;;;;;;;1.30;1.07;;;10.80;99.90;;;;;;5079679;28;20489;-75
2023/04/13 08:00:03;;;;;;;1.00;0.83;;;10.80;99.90;;;;;;5086600;28;20464;-76
2023/04/13 08:02:31;;;;;;;1.20;0.80;;;11.10;99.90;;;;;;5081981;28;20485;-77
2023/04/13 08:04:58;;;;;;;2.23;1.57;;;11.60;99.90;;;;;;5086067;28;20453;-75
2023/04/13 08:07:26;;;;;;;1.30;1.00;;;12.30;99.90;;;;;;5075527;28;21127;-75
2023/04/13 08:09:53;;;;;;;1.70;1.23;;;12.10;99.90;;;;;;5063584;28;20446;-74
2023/04/13 08:12:22;;;;;;;2.13;1.00;;;11.80;99.90;;;;;;5081155;28;20512;-75
2023/04/13 08:14:51;;;;;;;1.20;1.00;;;11.60;99.90;;;;;;5082058;28;20482;-75
2023/04/13 08:17:22;;;;;;;1.20;0.87;;;11.30;99.90;;;;;;5084819;28;20483;-75
2023/04/13 08:19:50;;;;;;;1.73;1.63;;;11.10;99.90;;;;;;5074294;28;20486;-75
2023/04/13 08:22:17;;;;;;;2.20;1.30;;;10.70;99.90;;;;;;5076217;28;20473;-76
2023/04/13 08:24:45;;;;;;;1.27;1.03;;;10.40;99.90;;;;;;5084755;28;20541;-75
2023/04/13 08:27:12;;;;;;;1.73;1.50;;;10.30;99.90;;;;;;5063225;28;20467;-75
2023/04/13 08:29:39;;;;;;;1.27;0.87;;;10.30;99.90;;;;;;5077868;28;21017;-76
2023/04/13 08:32:07;;;;;;;1.50;1.03;;;10.20;99.90;;;;;;5088925;28;21004;-75
2023/04/13 08:34:35;;;;;;;1.20;1.00;;;10.30;99.90;;;;;;5085421;28;21038;-75
2023/04/13 08:37:03;;;;;;;1.67;1.00;;;10.40;99.90;;;;;;5080591;28;20460;-77
2023/04/13 08:39:30;;;;;;;2.03;1.20;;;10.40;99.90;;;;;;5083600;28;21126;-75
2023/04/13 08:41:57;;;;;;;1.63;1.00;;;10.50;99.90;;;;;;5089968;28;20842;-75
2023/04/13 08:44:26;;;;;;;2.13;1.10;;;10.60;99.90;;;;;;5081216;28;20583;-76
2023/04/13 08:46:53;;;;;;;1.10;0.80;;;10.50;99.90;;;;;;5082543;28;20491;-78
2023/04/13 08:49:22;;;;;;;1.10;0.90;;;10.40;99.90;;;;;;5094186;28;20852;-76
2023/04/13 08:51:50;;;;;;;1.30;0.90;;;10.30;99.90;;;;;;5068728;28;20444;-75
2023/04/13 08:54:18;;;;;;;1.30;1.17;;;10.20;99.90;;;;;;5072676;28;20493;-74
2023/04/13 08:56:45;;;;;;;5.00;1.97;;;10.20;99.90;;;;;;5071634;28;21075;-75
2023/04/13 08:59:15;;;;;;;1.73;1.10;;;10.30;99.90;;;;;;5076572;28;20487;-76
2023/04/13 09:01:44;;;;;;;9.50;1.27;;;10.70;99.90;;;;;;5077382;28;20507;-75
2023/04/13 09:04:16;;;;;;;1.70;1.20;;;11.30;99.90;;;;;;5094440;28;20460;-78
2023/04/13 09:06:50;;;;;;;1.63;1.53;;;11.30;99.90;;;;;;5088252;28;20454;-75
2023/04/13 09:09:20;;;;;;;1.53;1.30;;;11.20;99.90;;;;;;5071200;28;20435;-76
2023/04/13 09:11:47;;;;;;;6.03;1.67;;;11.30;99.90;;;;;;5087154;28;20415;-76
2023/04/13 09:14:14;;;;;;;1.60;0.90;;;11.20;99.90;;;;;;5068213;28;20582;-76
2023/04/13 09:16:42;;;;;;;3.47;2.03;;;11.10;99.90;;;;;;5084024;28;20494;-75
2023/04/13 09:19:11;;;;;;;2.47;1.60;;;10.90;99.90;;;;;;5032941;28;20648;-76
2023/04/13 09:21:40;;;;;;;1.57;0.90;;;10.80;99.90;;;;;;5024389;28;20433;-76
2023/04/13 09:24:09;;;;;;;1.57;1.00;;;10.80;99.90;;;;;;5078432;28;20463;-75
2023/04/13 09:26:41;;;;;;;4.57;1.37;;;10.80;99.90;;;;;;5051333;28;20893;-78
2023/04/13 09:29:11;;;;;;;4.70;1.43;;;10.80;99.90;;;;;;5073858;28;20555;-79
2023/04/13 09:31:46;;;;;;;1.70;1.20;;;10.70;99.90;;;;;;5057729;28;20532;-75
2023/04/13 09:34:13;;;;;;;4.10;1.03;;;10.80;99.90;;;;;;5078218;28;20481;-75
2023/04/13 09:36:41;;;;;;;1.80;1.07;;;10.80;99.90;;;;;;5087891;28;20537;-76
2023/04/13 09:39:09;;;;;;;5.37;1.47;;;11.00;99.90;;;;;;5086014;28;20502;-75
2023/04/13 09:41:39;;;;;;;1.20;1.10;;;11.00;99.90;;;;;;5083301;28;21064;-77
2023/04/13 09:44:17;;;;;;;1.20;0.90;;;11.00;99.90;;;;;;5083891;28;21017;-76
2023/04/13 09:46:45;;;;;;;1.93;1.30;;;11.10;99.90;;;;;;5079715;28;20477;-75
2023/04/13 09:49:12;;;;;;;7.00;1.80;;;11.30;99.90;;;;;;5078369;28;20503;-75
2023/04/13 09:51:41;;;;;;;3.80;3.20;;;11.50;99.90;;;;;;5081668;28;20896;-77
2023/04/13 09:54:11;;;;;;;6.50;1.40;;;11.80;99.90;;;;;;5084576;28;20461;-76
2023/04/13 09:56:51;;;;;;;2.43;1.37;;;11.80;99.90;;;;;;5083193;28;20548;-81
2023/04/13 09:59:19;;;;;;;5.07;2.07;;;11.80;99.90;;;;;;5059984;28;20443;-75
2023/04/13 10:01:47;;;;;;;7.53;1.87;;;12.10;99.90;;;;;;5084260;28;20441;-76
2023/04/13 10:04:16;;;;;;;1.73;1.23;;;12.30;99.90;;;;;;5082507;28;20488;-75
2023/04/13 10:06:43;;;;;;;1.63;1.30;;;12.90;99.90;;;;;;5092689;28;20532;-75
2023/04/13 10:09:14;;;;;;;2.03;1.47;;;13.00;99.90;;;;;;5091236;28;20462;-78
2023/04/13 10:11:45;;;;;;;3.10;1.17;;;12.90;99.90;;;;;;5090569;28;20456;-76
2023/04/13 10:14:15;;;;;;;2.10;1.33;;;12.60;99.90;;;;;;5090931;28;20466;-76
2023/04/13 10:17:15;;;;;;;7.80;1.50;;;12.20;99.90;;;;;;5081255;28;21045;-76
2023/04/13 10:19:45;;;;;;;4.53;1.30;;;12.10;99.90;;;;;;5065529;28;20446;-75
2023/04/13 10:22:14;;;;;;;3.07;1.50;;;12.00;99.90;;;;;;5081258;28;20550;-75
2023/04/13 10:24:43;;;;;;;1.40;1.20;;;11.90;99.90;;;;;;5079492;28;21029;-77
2023/04/13 10:27:13;;;;;;;1.50;1.40;;;11.80;99.90;;;;;;5085774;28;20543;-76
2023/04/13 10:29:40;;;;;;;2.27;1.43;;;11.70;99.90;;;;;;5082315;28;20486;-76
2023/04/13 10:32:07;;;;;;;2.80;1.20;;;11.60;99.90;;;;;;5084081;28;20532;-76
2023/04/13 10:34:37;;;;;;;8.60;2.20;;;11.40;99.90;;;;;;5080952;28;20516;-77
2023/04/13 10:37:05;;;;;;;3.67;1.10;;;11.30;99.90;;;;;;5084484;28;20513;-77
2023/04/13 10:39:35;;;;;;;2.27;1.60;;;11.20;99.90;;;;;;5083395;28;20534;-75
2023/04/13 10:42:06;;;;;;;1.30;1.20;;;11.30;99.90;;;;;;5080689;28;20464;-76
2023/04/13 10:44:43;;;;;;;3.97;2.10;;;11.30;99.90;;;;;;5071493;28;20461;-75
2023/04/13 10:47:11;;;;;;;2.33;2.13;;;11.30;99.90;;;;;;5078366;28;20515;-77
2023/04/13 10:49:41;;;;;;;2.07;1.20;;;11.40;99.90;;;;;;5057640;28;20449;-75
2023/04/13 10:52:10;;;;;;;1.10;0.73;;;11.70;99.90;;;;;;5079055;28;20459;-75
2023/04/13 10:54:38;;;;;;;3.83;1.43;;;11.80;99.90;;;;;;5070055;28;20445;-76
2023/04/13 10:57:09;;;;;;;2.57;1.30;;;11.80;99.90;;;;;;5090111;28;20445;-76
2023/04/13 10:59:40;;;;;;;5.20;1.30;;;12.00;99.90;;;;;;5080138;28;20432;-76
2023/04/13 11:02:11;;;;;;;1.87;1.37;;;12.10;99.90;;;;;;5088205;28;20530;-76
2023/04/13 11:04:39;;;;;;;2.20;1.50;;;12.10;99.90;;;;;;5086772;28;20453;-75
2023/04/13 11:07:09;;;;;;;9.60;1.40;;;12.40;99.90;;;;;;5106569;28;20560;-76
2023/04/13 11:09:37;;;;;;;2.43;1.00;;;12.70;99.90;;;;;;5070369;28;20525;-75
2023/04/13 11:12:08;;;;;;;3.00;1.27;;;12.80;99.90;;;;;;5088863;28;20996;-75
2023/04/13 11:14:37;;;;;;;6.37;1.40;;;12.80;99.90;;;;;;5091628;28;20719;-75
2023/04/13 11:17:10;;;;;;;2.10;1.50;;;13.00;99.90;;;;;;5087168;28;20462;-75
2023/04/13 11:19:47;;;;;;;2.07;1.30;;;13.30;99.90;;;;;;5077040;28;20460;-76
2023/04/13 11:22:16;;;;;;;2.17;1.30;;;13.50;99.90;;;;;;5066218;28;20832;-75
2023/04/13 11:24:46;;;;;;;5.77;1.50;;;13.60;99.90;;;;;;5080373;28;20502;-76
2023/04/13 11:27:20;;;;;;;2.90;1.13;;;13.30;99.90;;;;;;5090263;28;20857;-75
2023/04/13 11:29:57;;;;;;;2.90;1.40;;;13.00;99.90;;;;;;5091663;28;20525;-77
2023/04/13 11:32:25;;;;;;;3.33;1.80;;;12.30;99.90;;;;;;5077356;28;21270;-75
2023/04/13 11:34:53;;;;;;;18.80;2.40;;;12.00;99.90;;;;;;5085284;28;20545;-75
2023/04/13 11:37:20;;;;;;;2.23;1.40;;;12.00;99.90;;;;;;5090589;28;20458;-76
2023/04/13 11:39:49;;;;;;;5.30;1.93;;;12.20;99.90;;;;;;5072338;28;21072;-77
2023/04/13 11:42:19;;;;;;;4.10;2.87;;;12.50;99.90;;;;;;5076672;28;20993;-76
2023/04/13 11:44:46;;;;;;;3.33;1.77;;;12.40;99.90;;;;;;5091429;28;20452;-76
2023/04/13 11:47:16;;;;;;;2.40;2.20;;;12.30;99.90;;;;;;5064735;28;20457;-76
2023/04/13 11:49:46;;;;;;;4.27;1.37;;;12.20;99.90;;;;;;5083143;28;20479;-75
2023/04/13 11:52:14;;;;;;;5.20;1.73;;;12.30;99.90;;;;;;5090276;28;20953;-78
2023/04/13 11:54:42;;;;;;;1.90;1.80;;;12.40;99.90;;;;;;5052312;28;20568;-76
2023/04/13 11:57:09;;;;;;;1.20;1.00;;;12.60;99.90;;;;;;5087103;28;20464;-75
2023/04/13 11:59:37;;;;;;;5.77;2.10;;;12.90;99.90;;;;;;5080143;28;20478;-76
2023/04/13 12:02:05;;;;;;;3.30;1.40;;;13.20;99.90;;;;;;5018655;28;20462;-76
2023/04/13 12:04:39;;;;;;;3.57;1.30;;;13.80;99.90;;;;;;5084036;28;20458;-73
2023/04/13 12:07:11;;;;;;;2.03;1.83;;;14.30;99.90;;;;;;5092144;28;20454;-76
2023/04/13 12:09:42;;;;;;;2.07;1.60;;;14.90;99.90;;;;;;5077706;28;20461;-74
2023/04/13 12:12:18;;;;;;;1.70;1.17;;;14.70;99.90;;;;;;5081522;28;21015;-76
2023/04/13 12:14:54;;;;;;;2.20;1.20;;;14.50;99.90;;;;;;5086427;28;20454;-76
2023/04/13 12:17:21;;;;;;;4.03;1.30;;;14.40;99.90;;;;;;5090296;28;20458;-75
2023/04/13 12:19:55;;;;;;;2.60;1.23;;;14.50;99.90;;;;;;5075693;28;20533;-75
2023/04/13 12:22:23;;;;;;;1.63;1.43;;;14.70;99.90;;;;;;5086405;28;21037;-76
2023/04/13 12:24:50;;;;;;;4.23;1.70;;;14.30;99.90;;;;;;5084824;28;20462;-74
2023/04/13 12:27:18;;;;;;;5.77;2.07;;;14.40;99.90;;;;;;5052262;28;20462;-74
2023/04/13 12:29:48;;;;;;;1.60;1.30;;;14.50;99.90;;;;;;5073538;28;20458;-77
2023/04/13 12:32:16;;;;;;;2.10;1.43;;;14.70;99.90;;;;;;5079836;28;20466;-76
2023/04/13 12:34:44;;;;;;;6.07;2.30;;;14.50;99.90;;;;;;5080080;28;20547;-74
2023/04/13 12:37:11;;;;;;;2.33;1.60;;;14.20;99.90;;;;;;5072507;28;20457;-75
2023/04/13 12:39:39;;;;;;;3.90;1.87;;;13.90;99.90;;;;;;5078592;28;20577;-74
2023/04/13 12:42:06;;;;;;;1.50;1.23;;;14.10;99.90;;;;;;5080655;28;20519;-78
2023/04/13 12:44:34;;;;;;;3.03;1.47;;;14.30;99.90;;;;;;5082893;28;20500;-75
2023/04/13 12:47:01;;;;;;;4.20;2.30;;;14.30;99.90;;;;;;5083611;28;20569;-74
2023/04/13 12:49:30;;;;;;;1.50;1.40;;;14.10;99.90;;;;;;5077210;28;20944;-75
2023/04/13 12:51:57;;;;;;;4.83;2.00;;;14.00;99.90;;;;;;5074483;28;20491;-76
2023/04/13 12:54:27;;;;;;;3.23;2.10;;;14.30;99.90;;;;;;5091120;28;20465;-75
2023/04/13 12:56:55;;;;;;;4.63;2.10;;;14.30;99.90;;;;;;5086826;28;20549;-75
2023/04/13 12:59:22;;;;;;;2.67;1.80;;;14.20;99.90;;;;;;5080876;28;20465;-75
2023/04/13 13:01:49;;;;;;;7.03;1.67;;;14.20;99.90;;;;;;5035151;28;20454;-76
2023/04/13 13:04:17;;;;;;;1.50;1.20;;;15.50;99.90;;;;;;5078150;28;20469;-76